createdAt,value
2017-05-27T00:00:54.683Z,92.68
2017-05-27T00:01:54.710Z,92.21
2017-05-27T00:02:54.428Z,92.3
2017-05-27T00:03:54.452Z,92.01
2017-05-27T00:04:54.779Z,92.3
2017-05-27T00:05:54.805Z,92.11
2017-05-27T00:06:54.825Z,92.58
2017-05-27T00:08:54.881Z,92.35
2017-05-27T00:09:54.904Z,93.21
2017-05-27T00:10:54.929Z,92.68
2017-05-27T00:12:09.567Z,92.58
2017-05-27T00:12:54.984Z,92.25
2017-05-27T00:13:54.999Z,92.73
2017-05-27T00:14:55.025Z,93.26
2017-05-27T00:15:55.047Z,93.12
2017-05-27T00:16:55.072Z,93.4
2017-05-27T00:17:55.096Z,92.73
2017-05-27T00:18:55.121Z,93.21
2017-05-27T00:19:55.145Z,93.02
2017-05-27T00:20:55.168Z,93.02
2017-05-27T00:21:55.193Z,93.21
2017-05-27T00:22:55.218Z,92.92
2017-05-27T00:24:55.266Z,93.4
2017-05-27T00:25:55.293Z,93.4
2017-05-27T00:26:55.313Z,93.79
2017-05-27T00:27:55.341Z,93.69
2017-05-27T00:28:55.412Z,93.88
2017-05-27T00:29:55.437Z,93.5
2017-05-27T00:30:55.410Z,94.36
2017-05-27T00:32:55.458Z,94.17
2017-05-27T00:33:55.482Z,94.45
2017-05-27T00:34:55.507Z,94.36
2017-05-27T00:35:55.531Z,94.07
2017-05-27T00:36:55.557Z,94.17
2017-05-27T00:37:55.578Z,94.26
2017-05-27T00:38:55.605Z,94.93
2017-05-27T00:39:55.626Z,94.74
2017-05-27T00:41:55.675Z,94.84
2017-05-27T00:42:55.700Z,95.03
2017-05-27T00:44:10.340Z,95.31
2017-05-27T00:44:55.749Z,95.17
2017-05-27T00:45:55.772Z,95.22
2017-05-27T00:46:55.796Z,95.41
2017-05-27T00:47:55.821Z,95.17
2017-05-27T00:48:55.846Z,96.03
2017-05-27T00:49:55.868Z,95.46
2017-05-27T00:50:55.891Z,95.94
2017-05-27T00:51:55.978Z,95.94
2017-05-27T00:52:55.942Z,96.13
2017-05-27T00:53:55.965Z,96.03
2017-05-27T00:55:56.013Z,96.03
2017-05-27T00:57:56.062Z,96.32
2017-05-27T00:58:56.135Z,96.22
2017-05-27T01:00:10.725Z,96.32
2017-05-27T01:00:56.133Z,96.22
2017-05-27T01:01:56.157Z,96.32
2017-05-27T01:02:56.184Z,96.7
2017-05-27T01:03:56.253Z,96.42
2017-05-27T01:04:56.229Z,96.8
2017-05-27T01:05:56.253Z,96.51
2017-05-27T01:06:56.277Z,96.51
2017-05-27T01:07:56.302Z,96.8
2017-05-27T01:08:56.325Z,96.84
2017-05-27T01:10:56.373Z,96.84
2017-05-27T01:11:56.094Z,97.71
2017-05-27T01:12:56.421Z,97.71
2017-05-27T01:13:56.446Z,97.71
2017-05-27T01:14:56.469Z,97.52
2017-05-27T01:16:11.108Z,97.99
2017-05-27T01:16:56.518Z,97.9
2017-05-27T01:17:56.237Z,98.09
2017-05-27T01:18:56.574Z,98.18
2017-05-27T01:19:56.590Z,98.28
2017-05-27T01:20:56.610Z,98.95
2017-05-27T01:21:56.635Z,99.14
2017-05-27T01:22:56.659Z,98.57
2017-05-27T01:23:56.692Z,98.95
2017-05-27T01:24:56.707Z,99.43
2017-05-27T01:25:56.731Z,99.48
2017-05-27T01:26:56.754Z,99.38
2017-05-27T01:27:56.779Z,99.28
2017-05-27T01:28:56.803Z,99.43
2017-05-27T01:29:56.826Z,99.71
2017-05-27T01:30:56.849Z,99.85
2017-05-27T01:32:11.491Z,99.66
2017-05-27T01:32:56.898Z,99.28
2017-05-27T01:33:56.920Z,99.19
2017-05-27T01:34:56.946Z,99.76
2017-05-27T01:35:57.019Z,99.85
2017-05-27T01:36:56.991Z,99.99
2017-05-27T01:37:57.015Z,99.99
2017-05-27T01:38:57.040Z,99.85
2017-05-27T01:39:57.065Z,99.76
2017-05-27T01:40:57.088Z,99.95
2017-05-27T01:41:57.110Z,99.99
2017-05-27T01:42:57.135Z,99.99
2017-05-27T01:43:57.157Z,99.99
2017-05-27T01:45:57.207Z,99.99
2017-05-27T01:47:11.848Z,99.99
2017-05-27T01:47:57.258Z,99.99
2017-05-27T01:48:57.279Z,99.99
2017-05-27T01:49:57.304Z,99.99
2017-05-27T01:50:57.325Z,99.99
2017-05-27T01:51:57.349Z,99.99
2017-05-27T01:52:57.375Z,99.99
2017-05-27T01:53:57.397Z,99.99
2017-05-27T01:54:57.421Z,99.99
2017-05-27T01:55:57.443Z,99.99
2017-05-27T01:56:57.472Z,99.99
2017-05-27T01:57:57.491Z,99.99
2017-05-27T01:58:57.517Z,99.99
2017-05-27T01:59:57.541Z,99.99
2017-05-27T02:00:57.563Z,99.99
2017-05-27T02:01:57.586Z,99.99
2017-05-27T02:02:57.612Z,99.99
2017-05-27T02:03:57.707Z,99.99
2017-05-27T02:04:57.657Z,99.99
2017-05-27T02:05:57.681Z,99.99
2017-05-27T02:06:57.703Z,99.99
2017-05-27T02:07:57.728Z,99.99
2017-05-27T02:08:57.754Z,99.99
2017-05-27T02:09:57.776Z,99.99
2017-05-27T02:10:57.796Z,99.99
2017-05-27T02:11:57.824Z,99.99
2017-05-27T02:12:57.846Z,99.99
2017-05-27T02:15:57.917Z,99.99
2017-05-27T02:16:57.944Z,99.99
2017-05-27T02:17:57.965Z,99.99
2017-05-27T02:19:12.602Z,99.99
2017-05-27T02:19:58.010Z,99.99
2017-05-27T02:20:58.033Z,99.99
2017-05-27T02:21:57.754Z,99.99
2017-05-27T02:22:58.079Z,99.99
2017-05-27T02:23:58.105Z,99.99
2017-05-27T02:24:58.132Z,99.99
2017-05-27T02:25:57.854Z,99.99
2017-05-27T02:26:57.869Z,99.99
2017-05-27T02:27:57.894Z,99.99
2017-05-27T02:29:57.941Z,99.99
2017-05-27T02:31:58.293Z,99.99
2017-05-27T02:32:58.313Z,99.99
2017-05-27T02:33:58.034Z,99.99
2017-05-27T02:35:12.978Z,99.99
2017-05-27T02:35:58.081Z,99.99
2017-05-27T02:36:58.411Z,99.99
2017-05-27T02:37:58.431Z,99.99
2017-05-27T02:38:58.152Z,99.99
2017-05-27T02:39:58.476Z,99.99
2017-05-27T02:40:58.502Z,99.99
2017-05-27T02:41:58.524Z,99.99
2017-05-27T02:42:58.549Z,99.99
2017-05-27T02:43:58.572Z,99.99
2017-05-27T02:45:58.616Z,99.99
2017-05-27T02:47:58.662Z,99.99
2017-05-27T02:48:58.691Z,99.99
2017-05-27T02:49:58.713Z,99.99
2017-05-27T02:51:13.349Z,99.99
2017-05-27T02:51:58.757Z,99.99
2017-05-27T02:52:58.783Z,99.99
2017-05-27T02:53:58.804Z,99.99
2017-05-27T02:54:58.829Z,99.99
2017-05-27T02:55:58.546Z,99.99
2017-05-27T02:56:58.873Z,99.99
2017-05-27T02:57:58.897Z,99.99
2017-05-27T02:58:58.920Z,99.99
2017-05-27T02:59:58.943Z,99.99
2017-05-27T03:00:58.662Z,99.99
2017-05-27T03:01:58.684Z,99.99
2017-05-27T03:02:59.011Z,99.99
2017-05-27T03:03:59.034Z,99.99
2017-05-27T03:04:59.057Z,99.99
2017-05-27T03:05:59.081Z,99.99
2017-05-27T03:07:13.721Z,99.99
2017-05-27T03:07:59.127Z,99.99
2017-05-27T03:08:59.152Z,99.99
2017-05-27T03:09:59.173Z,99.99
2017-05-27T03:10:59.197Z,99.99
2017-05-27T03:11:59.220Z,99.99
2017-05-27T03:12:59.246Z,99.99
2017-05-27T03:13:59.267Z,99.99
2017-05-27T03:15:59.315Z,99.99
2017-05-27T03:16:59.335Z,99.99
2017-05-27T03:17:59.364Z,99.99
2017-05-27T03:18:59.382Z,99.99
2017-05-27T03:20:59.429Z,99.99
2017-05-27T03:22:14.070Z,99.99
2017-05-27T03:22:59.478Z,99.99
2017-05-27T03:23:59.500Z,99.99
2017-05-27T03:24:59.522Z,99.99
2017-05-27T03:25:59.545Z,99.99
2017-05-27T03:26:59.570Z,99.99
2017-05-27T03:27:59.593Z,99.99
2017-05-27T03:28:59.312Z,99.99
2017-05-27T03:30:59.357Z,99.99
2017-05-27T03:31:59.684Z,99.99
2017-05-27T03:32:59.712Z,99.99
2017-05-27T03:33:59.429Z,99.99
2017-05-27T03:35:59.778Z,99.99
2017-05-27T03:36:59.806Z,99.99
2017-05-27T03:37:59.827Z,99.99
2017-05-27T03:38:59.850Z,99.99
2017-05-27T03:39:59.872Z,99.99
2017-05-27T03:40:59.894Z,99.99
2017-05-27T03:41:59.917Z,99.99
2017-05-27T03:42:59.941Z,99.99
2017-05-27T03:43:59.968Z,99.99
2017-05-27T03:44:59.988Z,99.99
2017-05-27T03:46:00.008Z,99.99
2017-05-27T03:47:00.034Z,99.99
2017-05-27T03:48:00.056Z,99.99
2017-05-27T03:49:00.130Z,99.99
2017-05-27T03:51:59.846Z,99.99
2017-05-27T03:53:00.172Z,99.99
2017-05-27T03:54:14.812Z,99.99
2017-05-27T03:55:00.224Z,99.99
2017-05-27T03:56:00.242Z,99.99
2017-05-27T03:57:00.265Z,99.99
2017-05-27T03:58:00.288Z,99.99
2017-05-27T03:59:00.313Z,99.99
2017-05-27T04:00:00.338Z,99.99
2017-05-27T04:01:00.358Z,99.99
2017-05-27T04:02:00.382Z,99.99
2017-05-27T04:03:00.410Z,99.99
2017-05-27T04:04:00.430Z,99.99
2017-05-27T04:05:00.457Z,99.99
2017-05-27T04:07:00.499Z,99.99
2017-05-27T04:09:00.241Z,99.99
2017-05-27T04:10:15.187Z,99.99
2017-05-27T04:11:00.599Z,99.99
2017-05-27T04:12:00.314Z,99.99
2017-05-27T04:13:00.643Z,99.99
2017-05-27T04:14:00.666Z,99.99
2017-05-27T04:15:00.688Z,99.99
2017-05-27T04:16:00.715Z,99.99
2017-05-27T04:17:00.435Z,99.99
2017-05-27T04:18:00.764Z,99.99
2017-05-27T04:19:00.784Z,99.99
2017-05-27T04:20:00.809Z,99.99
2017-05-27T04:21:00.831Z,99.99
2017-05-27T04:22:00.859Z,99.99
2017-05-27T04:23:00.882Z,99.99
2017-05-27T04:24:00.905Z,99.99
2017-05-27T04:25:00.928Z,99.99
2017-05-27T04:26:15.569Z,99.99
2017-05-27T04:27:00.672Z,99.99
2017-05-27T04:28:00.697Z,99.99
2017-05-27T04:29:01.024Z,99.99
2017-05-27T04:30:01.048Z,99.99
2017-05-27T04:31:01.071Z,99.99
2017-05-27T04:32:01.096Z,99.99
2017-05-27T04:33:01.120Z,99.99
2017-05-27T04:34:01.145Z,99.99
2017-05-27T04:35:01.171Z,99.43
2017-05-27T04:36:01.197Z,96.08
2017-05-27T04:37:01.217Z,90.23
2017-05-27T04:39:01.267Z,80.6
2017-05-27T04:40:01.291Z,76.21
2017-05-27T04:41:01.319Z,74.16
2017-05-27T04:42:15.961Z,70.64
2017-05-27T04:43:01.373Z,68.04
2017-05-27T04:44:01.397Z,66.97
2017-05-27T04:45:01.425Z,64.89
2017-05-27T04:46:01.451Z,63.6
2017-05-27T04:47:01.479Z,61.86
2017-05-27T04:48:01.211Z,60.63
2017-05-27T04:49:01.539Z,59.89
2017-05-27T04:50:01.566Z,59.11
2017-05-27T04:51:01.593Z,59.5
2017-05-27T04:52:01.622Z,57.14
2017-05-27T04:53:01.655Z,55.04
2017-05-27T04:54:01.682Z,53.05
2017-05-27T04:55:01.714Z,52.98
2017-05-27T04:56:01.745Z,51.55
2017-05-27T04:57:16.395Z,50.58
2017-05-27T04:58:01.811Z,49.46
2017-05-27T04:59:01.839Z,49.07
2017-05-27T05:00:01.872Z,49.17
2017-05-27T05:01:01.601Z,48.1
2017-05-27T05:02:01.938Z,47.74
2017-05-27T05:03:01.968Z,48.61
2017-05-27T05:04:02.000Z,48.32
2017-05-27T05:05:02.033Z,46.77
2017-05-27T05:06:02.066Z,46.13
2017-05-27T05:07:02.107Z,46.78
2017-05-27T05:08:02.135Z,45.42
2017-05-27T05:11:02.236Z,44.48
2017-05-27T05:12:02.269Z,45.06
2017-05-27T05:13:02.305Z,44.76
2017-05-27T05:14:02.337Z,43.52
2017-05-27T05:15:02.372Z,42.4
2017-05-27T05:16:02.103Z,42.49
2017-05-27T05:17:02.440Z,42.66
2017-05-27T05:18:02.475Z,42.18
2017-05-27T05:19:02.510Z,42.02
2017-05-27T05:20:02.545Z,40.58
2017-05-27T05:21:02.580Z,40.31
2017-05-27T05:22:02.615Z,39.62
2017-05-27T05:23:02.652Z,38.77
2017-05-27T05:24:02.687Z,38.59
2017-05-27T05:25:02.719Z,39.45
2017-05-27T05:27:02.796Z,37.24
2017-05-27T05:28:02.827Z,38.32
2017-05-27T05:29:17.483Z,38.28
2017-05-27T05:30:02.901Z,39.26
2017-05-27T05:31:02.948Z,37.99
2017-05-27T05:32:02.975Z,36.94
2017-05-27T05:33:03.009Z,37.35
2017-05-27T05:34:03.055Z,35.89
2017-05-27T05:35:03.080Z,36.1
2017-05-27T05:36:03.175Z,35.99
2017-05-27T05:37:03.154Z,35.32
2017-05-27T05:38:03.193Z,35.4
2017-05-27T05:39:03.227Z,35.5
2017-05-27T05:40:03.263Z,34.06
2017-05-27T05:41:03.550Z,34.75
2017-05-27T05:43:03.375Z,34.93
2017-05-27T05:44:03.410Z,35.71
2017-05-27T05:45:18.068Z,34.91
2017-05-27T05:46:03.534Z,35.11
2017-05-27T05:47:03.521Z,35.22
2017-05-27T05:48:03.559Z,34.34
2017-05-27T05:49:03.599Z,34.26
2017-05-27T05:50:03.330Z,34.94
2017-05-27T05:51:03.671Z,34.83
2017-05-27T05:52:03.705Z,34.24
2017-05-27T05:53:03.745Z,33.67
2017-05-27T05:54:03.780Z,33.59
2017-05-27T05:55:03.817Z,34.16
2017-05-27T05:56:03.855Z,33.2
2017-05-27T05:58:03.629Z,34.18
2017-05-27T05:59:03.968Z,34.05
2017-05-27T06:00:04.008Z,33.28
2017-05-27T06:01:18.663Z,33
2017-05-27T06:02:04.079Z,31.74
2017-05-27T06:03:04.117Z,31.29
2017-05-27T06:04:03.852Z,31.77
2017-05-27T06:05:04.193Z,30.81
2017-05-27T06:06:04.232Z,31.6
2017-05-27T06:07:03.966Z,30.88
2017-05-27T06:08:04.310Z,30.04
2017-05-27T06:09:04.347Z,31.1
2017-05-27T06:10:04.385Z,31.45
2017-05-27T06:11:04.425Z,31.93
2017-05-27T06:12:04.460Z,32.3
2017-05-27T06:13:04.550Z,31.83
2017-05-27T06:14:04.537Z,32.12
2017-05-27T06:15:04.574Z,32.1
2017-05-27T06:16:04.611Z,31.63
2017-05-27T06:17:19.270Z,30.68
2017-05-27T06:18:04.692Z,30.99
2017-05-27T06:19:04.725Z,29.91
2017-05-27T06:20:04.765Z,29.91
2017-05-27T06:21:04.804Z,30.21
2017-05-27T06:22:04.841Z,30.37
2017-05-27T06:23:04.882Z,30.49
2017-05-27T06:24:04.917Z,30.78
2017-05-27T06:25:04.652Z,30.1
2017-05-27T06:26:04.690Z,30.5
2017-05-27T06:27:05.033Z,30.02
2017-05-27T06:30:05.153Z,28.91
2017-05-27T06:31:05.188Z,27.53
2017-05-27T06:32:19.847Z,28.02
2017-05-27T06:33:04.962Z,27.54
2017-05-27T06:34:05.304Z,26.37
2017-05-27T06:35:05.343Z,25.79
2017-05-27T06:36:05.383Z,27.16
2017-05-27T06:37:05.119Z,27.82
2017-05-27T06:38:05.462Z,27.33
2017-05-27T06:39:05.516Z,26.56
2017-05-27T06:40:05.236Z,25.99
2017-05-27T06:41:05.577Z,25.42
2017-05-27T06:42:05.315Z,26.1
2017-05-27T06:43:05.656Z,26.39
2017-05-27T06:44:05.696Z,26.58
2017-05-27T06:45:05.733Z,25.51
2017-05-27T06:46:05.774Z,25.33
2017-05-27T06:47:05.812Z,25.52
2017-05-27T06:48:05.856Z,24.44
2017-05-27T06:49:05.892Z,23.86
2017-05-27T06:50:05.629Z,24.06
2017-05-27T06:51:05.973Z,24.35
2017-05-27T06:52:06.010Z,23.85
2017-05-27T06:53:06.050Z,23.96
2017-05-27T06:54:06.090Z,24.75
2017-05-27T06:55:05.878Z,24.44
2017-05-27T06:56:05.868Z,24.16
2017-05-27T06:57:05.908Z,23.95
2017-05-27T06:58:06.255Z,23.17
2017-05-27T06:59:06.295Z,23.86
2017-05-27T07:01:06.372Z,24.26
2017-05-27T07:02:06.107Z,23.47
2017-05-27T07:03:06.150Z,22.96
2017-05-27T07:04:21.110Z,24.43
2017-05-27T07:05:06.226Z,25.37
2017-05-27T07:06:06.572Z,24.87
2017-05-27T07:07:06.610Z,25.57
2017-05-27T07:08:06.653Z,24.99
2017-05-27T07:09:06.689Z,25.12
2017-05-27T07:10:06.728Z,24.23
2017-05-27T07:11:06.771Z,24.33
2017-05-27T07:12:06.509Z,24.9
2017-05-27T07:13:06.850Z,25.57
2017-05-27T07:14:06.889Z,25.37
2017-05-27T07:17:07.008Z,24.73
2017-05-27T07:18:06.744Z,23.54
2017-05-27T07:19:07.088Z,24.15
2017-05-27T07:20:21.748Z,24.3
2017-05-27T07:21:07.168Z,24
2017-05-27T07:22:07.207Z,24.3
2017-05-27T07:23:07.248Z,24.21
2017-05-27T07:24:06.984Z,24.7
2017-05-27T07:25:07.022Z,24.9
2017-05-27T07:26:07.367Z,23.82
2017-05-27T07:27:07.405Z,24.41
2017-05-27T07:28:07.446Z,24.6
2017-05-27T07:29:07.485Z,24.57
2017-05-27T07:30:07.222Z,24.87
2017-05-27T07:31:07.261Z,25.73
2017-05-27T07:32:07.302Z,26.7
2017-05-27T07:33:07.646Z,26.11
2017-05-27T07:34:07.683Z,27.01
2017-05-27T07:35:07.723Z,25.74
2017-05-27T07:36:22.381Z,24.4
2017-05-27T07:37:07.803Z,25.17
2017-05-27T07:38:07.847Z,25.05
2017-05-27T07:39:07.878Z,25.56
2017-05-27T07:40:07.917Z,24.79
2017-05-27T07:41:07.960Z,23.32
2017-05-27T07:42:07.694Z,23.94
2017-05-27T07:43:07.733Z,23.46
2017-05-27T07:44:08.074Z,22.67
2017-05-27T07:45:07.810Z,21.5
2017-05-27T07:46:08.155Z,22.75
2017-05-27T07:47:07.939Z,23.03
2017-05-27T07:50:08.311Z,22.84
2017-05-27T07:51:08.351Z,22.66
2017-05-27T07:52:23.010Z,23.43
2017-05-27T07:53:08.433Z,23.52
2017-05-27T07:54:08.164Z,22.63
2017-05-27T07:55:08.202Z,22.45
2017-05-27T07:56:08.546Z,22.27
2017-05-27T07:57:08.585Z,23.53
2017-05-27T07:58:08.623Z,24
2017-05-27T07:59:08.664Z,23.32
2017-05-27T08:00:08.703Z,23.53
2017-05-27T08:01:08.749Z,23.24
2017-05-27T08:02:08.478Z,21.39
2017-05-27T08:03:08.821Z,21.41
2017-05-27T08:04:08.860Z,21.5
2017-05-27T08:05:08.596Z,21.98
2017-05-27T08:06:08.942Z,21.39
2017-05-27T08:07:23.600Z,21.11
2017-05-27T08:08:08.765Z,21.59
2017-05-27T08:09:09.057Z,22.17
2017-05-27T08:10:09.096Z,21.98
2017-05-27T08:11:09.136Z,22.09
2017-05-27T08:12:09.228Z,21.5
2017-05-27T08:13:08.912Z,21.68
2017-05-27T08:14:08.949Z,21.2
2017-05-27T08:15:08.987Z,21.22
2017-05-27T08:16:09.330Z,21.01
2017-05-27T08:18:09.109Z,21.2
2017-05-27T08:19:09.147Z,20.89
2017-05-27T08:20:09.185Z,21.28
2017-05-27T08:21:09.224Z,22.44
2017-05-27T08:22:09.263Z,21.84
2017-05-27T08:23:09.606Z,21.18
2017-05-27T08:24:09.342Z,20.89
2017-05-27T08:25:09.685Z,21.29
2017-05-27T08:26:09.418Z,21.25
2017-05-27T08:27:09.457Z,21.36
2017-05-27T08:28:09.799Z,21.73
2017-05-27T08:29:09.840Z,21.26
2017-05-27T08:30:09.955Z,21.07
2017-05-27T08:31:09.915Z,21.46
2017-05-27T08:32:09.957Z,21.55
2017-05-27T08:33:09.691Z,21.94
2017-05-27T08:36:09.805Z,22.01
2017-05-27T08:37:10.148Z,22.39
2017-05-27T08:38:10.186Z,22.2
2017-05-27T08:39:24.845Z,21.63
2017-05-27T08:40:10.262Z,21.23
2017-05-27T08:41:10.355Z,21.73
2017-05-27T08:42:10.339Z,21.55
2017-05-27T08:43:10.076Z,21.17
2017-05-27T08:44:10.416Z,20.49
2017-05-27T08:45:10.455Z,20.4
2017-05-27T08:46:10.491Z,21.28
2017-05-27T08:47:10.530Z,21.36
2017-05-27T08:48:10.569Z,19.01
2017-05-27T08:50:10.644Z,20.76
2017-05-27T08:52:10.417Z,20.26
2017-05-27T08:53:10.458Z,20.07
2017-05-27T08:54:10.494Z,18.52
2017-05-27T08:55:25.455Z,19.31
2017-05-27T08:56:10.880Z,19.01
2017-05-27T08:57:10.910Z,18.34
2017-05-27T08:58:10.949Z,18.91
2017-05-27T08:59:10.986Z,21.12
2017-05-27T09:00:11.023Z,21.22
2017-05-27T09:01:11.061Z,20.06
2017-05-27T09:02:10.803Z,20.06
2017-05-27T09:03:11.139Z,20.36
2017-05-27T09:04:11.176Z,19.96
2017-05-27T09:05:11.211Z,20.67
2017-05-27T09:06:11.250Z,20.67
2017-05-27T09:08:11.023Z,20.17
2017-05-27T09:09:11.364Z,21.03
2017-05-27T09:10:11.434Z,22.08
2017-05-27T09:11:26.056Z,22.26
2017-05-27T09:12:11.172Z,21.99
2017-05-27T09:13:11.208Z,22.56
2017-05-27T09:14:11.245Z,23.06
2017-05-27T09:15:11.585Z,22.48
2017-05-27T09:16:11.673Z,21.12
2017-05-27T09:17:11.661Z,20.95
2017-05-27T09:18:11.696Z,20.94
2017-05-27T09:19:11.733Z,21.63
2017-05-27T09:20:11.770Z,21.91
2017-05-27T09:21:11.806Z,22.41
2017-05-27T09:22:11.843Z,21.41
2017-05-27T09:23:11.880Z,21.72
2017-05-27T09:24:11.967Z,21.14
2017-05-27T09:25:11.953Z,20.95
2017-05-27T09:26:11.990Z,21.05
2017-05-27T09:27:26.646Z,21.07
2017-05-27T09:28:12.064Z,20.86
2017-05-27T09:29:12.153Z,20.85
2017-05-27T09:30:12.135Z,21.25
2017-05-27T09:31:12.172Z,21.45
2017-05-27T09:32:12.211Z,21.17
2017-05-27T09:33:11.942Z,19.4
2017-05-27T09:34:12.295Z,19.72
2017-05-27T09:35:12.318Z,19.02
2017-05-27T09:36:12.354Z,20.01
2017-05-27T09:37:12.392Z,19.43
2017-05-27T09:38:12.125Z,19.63
2017-05-27T09:40:12.502Z,19.9
2017-05-27T09:41:12.538Z,21.17
2017-05-27T09:42:27.194Z,19.79
2017-05-27T09:43:12.611Z,20.1
2017-05-27T09:44:12.647Z,20.95
2017-05-27T09:45:12.682Z,20.75
2017-05-27T09:46:12.721Z,21.12
2017-05-27T09:47:12.759Z,22.67
2017-05-27T09:48:12.490Z,23.14
2017-05-27T09:49:12.828Z,22.46
2017-05-27T09:50:12.864Z,22.56
2017-05-27T09:51:12.899Z,22.08
2017-05-27T09:52:12.997Z,21.2
2017-05-27T09:53:12.971Z,21.31
2017-05-27T09:54:13.007Z,21.22
2017-05-27T09:56:12.778Z,21.72
2017-05-27T09:57:12.812Z,22.48
2017-05-27T09:58:12.853Z,22.56
2017-05-27T09:59:12.884Z,21.88
2017-05-27T10:00:12.918Z,21.39
2017-05-27T10:01:12.955Z,22.28
2017-05-27T10:02:12.992Z,21.98
2017-05-27T10:03:13.024Z,22.17
2017-05-27T10:04:13.060Z,22.77
2017-05-27T10:05:13.097Z,23.13
2017-05-27T10:06:13.449Z,23.92
2017-05-27T10:07:13.165Z,24.2
2017-05-27T10:08:13.209Z,23.99
2017-05-27T10:09:13.541Z,24.02
2017-05-27T10:10:13.577Z,23.13
2017-05-27T10:11:13.309Z,22.48
2017-05-27T10:12:13.648Z,22.97
2017-05-27T10:13:13.682Z,22.58
2017-05-27T10:14:28.336Z,23.08
2017-05-27T10:15:13.755Z,23.84
2017-05-27T10:16:13.788Z,23.43
2017-05-27T10:17:13.517Z,23.43
2017-05-27T10:18:13.856Z,23.34
2017-05-27T10:19:13.892Z,23.74
2017-05-27T10:20:13.928Z,22.86
2017-05-27T10:21:13.658Z,22.77
2017-05-27T10:22:13.996Z,21.22
2017-05-27T10:23:14.032Z,22
2017-05-27T10:24:14.067Z,22.2
2017-05-27T10:26:14.146Z,22.66
2017-05-27T10:27:13.869Z,22.36
2017-05-27T10:29:14.241Z,23.72
2017-05-27T10:30:28.946Z,23.71
2017-05-27T10:31:14.312Z,25.35
2017-05-27T10:32:14.344Z,25.34
2017-05-27T10:33:14.379Z,25.93
2017-05-27T10:34:14.416Z,25.52
2017-05-27T10:35:14.449Z,26.39
2017-05-27T10:36:14.483Z,26.77
2017-05-27T10:37:14.568Z,26.97
2017-05-27T10:38:14.553Z,27.64
2017-05-27T10:39:14.587Z,27.73
2017-05-27T10:40:14.622Z,28.13
2017-05-27T10:41:14.657Z,28.49
2017-05-27T10:43:14.726Z,28.77
2017-05-27T10:44:14.760Z,29.64
2017-05-27T10:45:14.794Z,30.32
2017-05-27T10:46:29.497Z,30.7
2017-05-27T10:47:14.861Z,30.58
2017-05-27T10:48:14.895Z,29.81
2017-05-27T10:49:14.931Z,30.88
2017-05-27T10:50:14.966Z,30.58
2017-05-27T10:51:14.998Z,30.29
2017-05-27T10:52:15.032Z,30.57
2017-05-27T10:53:15.065Z,30.67
2017-05-27T10:54:15.098Z,30.28
2017-05-27T10:56:15.169Z,29.14
2017-05-27T10:57:15.200Z,29.24
2017-05-27T10:58:15.233Z,29.81
2017-05-27T10:59:15.268Z,30
2017-05-27T11:00:15.302Z,29.82
2017-05-27T11:01:15.332Z,29.81
2017-05-27T11:02:29.987Z,30.87
2017-05-27T11:03:15.401Z,30.57
2017-05-27T11:04:15.130Z,30.67
2017-05-27T11:05:15.165Z,30
2017-05-27T11:06:15.501Z,30.58
2017-05-27T11:07:15.533Z,29.81
2017-05-27T11:08:15.565Z,30.31
2017-05-27T11:09:15.600Z,30.58
2017-05-27T11:10:15.634Z,30.29
2017-05-27T11:11:15.666Z,30.98
2017-05-27T11:12:15.748Z,30.29
2017-05-27T11:13:15.731Z,30.38
2017-05-27T11:15:15.799Z,30.85
2017-05-27T11:16:15.529Z,30.77
2017-05-27T11:17:30.483Z,30.49
2017-05-27T11:18:15.594Z,30.57
2017-05-27T11:19:15.932Z,30.47
2017-05-27T11:20:15.659Z,29.99
2017-05-27T11:21:15.691Z,30.38
2017-05-27T11:22:16.027Z,30.67
2017-05-27T11:23:15.756Z,30.38
2017-05-27T11:24:16.091Z,30.47
2017-05-27T11:26:15.852Z,30.67
2017-05-27T11:27:16.187Z,31.35
2017-05-27T11:28:16.221Z,31.73
2017-05-27T11:29:16.254Z,31.35
2017-05-27T11:30:16.285Z,30.68
2017-05-27T11:31:16.016Z,30.88
2017-05-27T11:32:16.351Z,30.29
2017-05-27T11:33:16.382Z,30.47
2017-05-27T11:34:16.415Z,31.71
2017-05-27T11:35:16.446Z,31.73
2017-05-27T11:36:16.176Z,31.82
2017-05-27T11:37:16.510Z,31.64
2017-05-27T11:38:16.241Z,31.74
2017-05-27T11:39:16.270Z,31.63
2017-05-27T11:40:16.609Z,31.63
2017-05-27T11:41:16.638Z,31.92
2017-05-27T11:42:16.367Z,31.82
2017-05-27T11:43:16.704Z,31.84
2017-05-27T11:44:16.736Z,31.64
2017-05-27T11:45:16.769Z,31.73
2017-05-27T11:46:16.801Z,32.11
2017-05-27T11:47:16.833Z,32.21
2017-05-27T11:48:16.564Z,32.89
2017-05-27T11:49:31.514Z,32.11
2017-05-27T11:50:16.926Z,32.6
2017-05-27T11:51:16.957Z,32.4
2017-05-27T11:52:16.991Z,31.93
2017-05-27T11:53:17.023Z,32.52
2017-05-27T11:54:17.056Z,32.97
2017-05-27T11:55:17.086Z,33.26
2017-05-27T11:56:17.118Z,33.17
2017-05-27T11:57:17.149Z,32.49
2017-05-27T11:58:17.181Z,32.78
2017-05-27T11:59:17.211Z,32.4
2017-05-27T12:00:17.243Z,32.42
2017-05-27T12:01:17.278Z,32.62
2017-05-27T12:03:17.338Z,32.15
2017-05-27T12:05:32.021Z,31.64
2017-05-27T12:06:17.433Z,32.03
2017-05-27T12:07:17.462Z,31.95
2017-05-27T12:08:17.495Z,31.93
2017-05-27T12:09:17.223Z,31.93
2017-05-27T12:10:17.563Z,32.34
2017-05-27T12:11:17.600Z,31.76
2017-05-27T12:12:17.631Z,31.95
2017-05-27T12:13:17.653Z,31.54
2017-05-27T12:14:17.684Z,31.84
2017-05-27T12:15:17.718Z,31.74
2017-05-27T12:16:17.748Z,32.13
2017-05-27T12:18:17.810Z,31.76
2017-05-27T12:19:17.841Z,30.7
2017-05-27T12:20:17.873Z,31.27
2017-05-27T12:21:32.524Z,32.5
2017-05-27T12:22:17.937Z,32.11
2017-05-27T12:23:17.975Z,31.92
2017-05-27T12:24:18.001Z,31.64
2017-05-27T12:25:18.031Z,31.43
2017-05-27T12:26:17.760Z,32.2
2017-05-27T12:27:17.790Z,32.59
2017-05-27T12:28:18.126Z,32.87
2017-05-27T12:29:18.158Z,33.07
2017-05-27T12:30:18.188Z,33.36
2017-05-27T12:31:17.918Z,32.4
2017-05-27T12:32:17.948Z,31.73
2017-05-27T12:33:18.282Z,32.6
2017-05-27T12:34:18.316Z,32.78
2017-05-27T12:35:18.346Z,32.78
2017-05-27T12:36:18.378Z,32.47
2017-05-27T12:37:33.027Z,33.83
2017-05-27T12:38:18.447Z,34.12
2017-05-27T12:39:18.471Z,34.24
2017-05-27T12:40:18.197Z,33.18
2017-05-27T12:41:18.230Z,32.89
2017-05-27T12:42:18.565Z,33.09
2017-05-27T12:43:18.596Z,33.75
2017-05-27T12:44:18.627Z,34.24
2017-05-27T12:45:18.356Z,33.86
2017-05-27T12:46:18.690Z,32.79
2017-05-27T12:47:18.721Z,32.99
2017-05-27T12:48:18.750Z,33.07
2017-05-27T12:49:18.782Z,33.09
2017-05-27T12:51:18.848Z,33.96
2017-05-27T12:52:33.495Z,32.99
2017-05-27T12:53:18.908Z,32.5
2017-05-27T12:54:18.938Z,32.89
2017-05-27T12:55:18.984Z,32.87
2017-05-27T12:56:18.698Z,33.07
2017-05-27T12:57:18.732Z,31.9
2017-05-27T12:58:18.759Z,31.73
2017-05-27T12:59:18.793Z,32.78
2017-05-27T13:01:18.854Z,31.53
2017-05-27T13:02:19.192Z,31.73
2017-05-27T13:04:19.251Z,33.06
2017-05-27T13:06:19.362Z,32.68
2017-05-27T13:07:19.342Z,32.49
2017-05-27T13:08:19.374Z,32.68
2017-05-27T13:09:19.404Z,32.59
2017-05-27T13:10:19.436Z,32.87
2017-05-27T13:11:19.467Z,33.44
2017-05-27T13:12:19.497Z,34.05
2017-05-27T13:13:19.229Z,33.26
2017-05-27T13:14:19.560Z,33.38
2017-05-27T13:15:19.595Z,33.09
2017-05-27T13:16:19.621Z,32.99
2017-05-27T13:17:19.349Z,32.7
2017-05-27T13:18:19.380Z,33.17
2017-05-27T13:19:19.414Z,33.09
2017-05-27T13:21:19.474Z,32.68
2017-05-27T13:22:19.504Z,32.99
2017-05-27T13:23:19.837Z,32.68
2017-05-27T13:24:34.488Z,31.71
2017-05-27T13:25:19.904Z,31.61
2017-05-27T13:26:19.930Z,32.39
2017-05-27T13:27:19.961Z,32.78
2017-05-27T13:28:19.688Z,31.61
2017-05-27T13:29:20.022Z,32.31
2017-05-27T13:30:20.055Z,31.63
2017-05-27T13:31:20.088Z,31.73
2017-05-27T13:32:20.114Z,31.61
2017-05-27T13:33:19.843Z,32.2
2017-05-27T13:34:19.873Z,32.59
2017-05-27T13:35:19.904Z,32
2017-05-27T13:37:20.271Z,32.67
2017-05-27T13:39:20.331Z,33.73
2017-05-27T13:40:34.982Z,32.67
2017-05-27T13:41:20.398Z,32.87
2017-05-27T13:42:20.424Z,33.65
2017-05-27T13:43:20.454Z,32.78
2017-05-27T13:44:20.486Z,32.59
2017-05-27T13:45:20.213Z,33.36
2017-05-27T13:46:20.548Z,32.97
2017-05-27T13:47:20.274Z,33.07
2017-05-27T13:48:20.609Z,33.07
2017-05-27T13:49:20.639Z,32.87
2017-05-27T13:50:20.670Z,32.78
2017-05-27T13:51:20.699Z,32.2
2017-05-27T13:52:20.734Z,32.29
2017-05-27T13:53:20.765Z,32.29
2017-05-27T13:54:20.795Z,32
2017-05-27T13:55:20.826Z,32.02